Time;durP1;ratioP1;P1;durP2;ratioP2;P2;SDS_P1;SDS_P2;PMS_P1;PMS_P2;Temp;Humidity;BMP_temperature;BMP_pressure;BME280_temperature;BME280_humidity;BME280_pressure;Samples;Min_cycle;Max_cycle;Signal;HPM_P1;HPM_P2
2023/10/11 00:03:17;;;;;;;14.88;9.50;;;16.20;99.90;;;;;;5114554;28;20206;-60
2023/10/11 00:05:45;;;;;;;16.77;10.32;;;16.20;99.90;;;;;;5111075;28;20039;-60
2023/10/11 00:08:13;;;;;;;16.23;9.98;;;16.20;99.90;;;;;;5111842;28;20035;-61
2023/10/11 00:10:53;;;;;;;17.60;10.20;;;16.20;99.90;;;;;;5114164;28;20059;-61
2023/10/11 00:13:20;;;;;;;21.38;10.77;;;16.20;99.90;;;;;;5113849;28;20059;-60
2023/10/11 00:15:50;;;;;;;17.98;10.88;;;16.10;99.90;;;;;;5097735;28;20048;-59
2023/10/11 00:18:28;;;;;;;19.98;11.43;;;16.20;99.90;;;;;;5090906;28;20141;-59
2023/10/11 00:20:58;;;;;;;18.55;11.98;;;16.10;99.90;;;;;;5095203;28;20042;-60
2023/10/11 00:23:26;;;;;;;18.77;11.73;;;16.20;99.90;;;;;;5089969;28;20551;-60
2023/10/11 00:26:00;;;;;;;18.85;11.77;;;16.20;99.90;;;;;;5090290;28;20373;-61
2023/10/11 00:28:26;;;;;;;19.63;12.40;;;16.30;99.90;;;;;;5091046;28;20730;-62
2023/10/11 00:30:55;;;;;;;23.02;13.50;;;16.20;99.90;;;;;;5088834;28;20503;-60
2023/10/11 00:33:21;;;;;;;22.80;13.00;;;16.30;99.90;;;;;;5093351;28;20379;-62
2023/10/11 00:35:50;;;;;;;27.42;14.15;;;16.20;99.90;;;;;;5091622;28;20065;-61
2023/10/11 00:38:20;;;;;;;22.00;14.15;;;16.30;99.90;;;;;;5092133;28;20506;-62
2023/10/11 00:41:06;;;;;;;23.73;14.27;;;16.30;99.90;;;;;;5092601;28;20534;-59
2023/10/11 00:43:36;;;;;;;21.77;13.52;;;16.20;99.90;;;;;;5091418;28;20036;-61
2023/10/11 00:46:05;;;;;;;24.45;14.18;;;16.30;99.90;;;;;;5089643;28;20040;-60
2023/10/11 00:48:31;;;;;;;21.45;13.98;;;16.10;99.90;;;;;;5091162;28;20043;-60
2023/10/11 00:50:57;;;;;;;25.63;15.00;;;16.20;99.90;;;;;;5092369;28;20041;-60
2023/10/11 00:53:26;;;;;;;27.27;15.10;;;16.20;99.90;;;;;;5090326;28;20070;-59
2023/10/11 00:55:57;;;;;;;22.83;14.77;;;16.30;99.90;;;;;;5090901;28;20040;-59
2023/10/11 00:58:23;;;;;;;28.40;15.98;;;16.30;99.90;;;;;;5089242;28;20464;-61
2023/10/11 01:00:49;;;;;;;26.63;16.17;;;16.30;99.90;;;;;;5094579;28;20035;-59
2023/10/11 01:03:17;;;;;;;27.33;16.63;;;16.10;99.90;;;;;;5089667;28;20129;-59
2023/10/11 01:05:44;;;;;;;28.17;16.42;;;16.30;99.90;;;;;;5091625;28;20045;-59
2023/10/11 01:08:13;;;;;;;27.67;17.65;;;16.20;99.90;;;;;;5090555;28;20043;-61
2023/10/11 01:10:45;;;;;;;28.45;16.90;;;16.20;99.90;;;;;;5091265;28;20054;-59
2023/10/11 01:13:13;;;;;;;27.05;17.45;;;16.20;99.90;;;;;;5090062;28;20109;-61
2023/10/11 01:15:41;;;;;;;28.40;17.05;;;16.20;99.90;;;;;;5090150;28;20115;-60
2023/10/11 01:18:07;;;;;;;29.55;18.15;;;16.30;99.90;;;;;;5082953;28;20128;-58
2023/10/11 01:20:37;;;;;;;29.27;16.90;;;16.20;99.90;;;;;;5087323;28;20040;-60
2023/10/11 01:23:05;;;;;;;26.23;17.75;;;16.40;99.90;;;;;;5089722;28;20040;-61
2023/10/11 01:25:31;;;;;;;32.45;18.15;;;16.10;99.90;;;;;;5091217;28;20126;-61
2023/10/11 01:27:57;;;;;;;28.38;17.60;;;16.20;99.90;;;;;;5093119;28;20604;-60
2023/10/11 01:30:26;;;;;;;32.08;18.42;;;16.30;99.90;;;;;;5089984;28;20162;-60
2023/10/11 01:32:54;;;;;;;28.52;19.00;;;16.20;99.90;;;;;;5092327;28;20105;-61
2023/10/11 01:35:20;;;;;;;28.05;18.00;;;16.20;99.90;;;;;;5091773;28;20451;-60
2023/10/11 01:37:54;;;;;;;27.58;18.65;;;16.30;99.90;;;;;;5089915;28;20067;-58
2023/10/11 01:40:20;;;;;;;;;;;16.30;99.90;;;;;;5089785;28;20040;-61
2023/10/11 01:42:53;;;;;;;27.25;18.77;;;16.30;99.90;;;;;;5090232;28;19999;-60
2023/10/11 01:45:19;;;;;;;29.20;18.63;;;16.10;99.90;;;;;;5090513;28;20036;-57
2023/10/11 01:47:46;;;;;;;28.23;18.02;;;16.20;99.90;;;;;;5091704;28;20048;-60
2023/10/11 01:50:16;;;;;;;28.40;18.48;;;16.20;99.90;;;;;;5091600;28;20502;-60
2023/10/11 01:52:42;;;;;;;25.73;18.48;;;16.20;99.90;;;;;;5110446;28;20043;-60
2023/10/11 01:55:13;;;;;;;26.65;18.83;;;16.20;99.90;;;;;;5110651;28;20101;-60
2023/10/11 01:57:41;;;;;;;29.27;19.25;;;16.00;99.90;;;;;;5109776;28;20039;-60
2023/10/11 02:00:13;;;;;;;29.05;19.17;;;16.20;99.90;;;;;;5110978;28;20640;-60
2023/10/11 02:02:55;;;;;;;31.20;19.17;;;16.10;99.90;;;;;;5110893;28;20103;-60
2023/10/11 02:05:25;;;;;;;29.02;18.95;;;16.00;99.90;;;;;;5111816;28;20049;-60
2023/10/11 02:07:51;;;;;;;27.30;19.77;;;16.10;99.90;;;;;;5112145;28;20066;-60
2023/10/11 02:10:27;;;;;;;31.67;19.55;;;16.10;99.90;;;;;;5110409;28;20040;-59
2023/10/11 02:12:56;;;;;;;27.98;18.55;;;16.10;99.90;;;;;;5109896;28;20044;-59
2023/10/11 02:15:27;;;;;;;31.60;19.52;;;16.00;99.90;;;;;;5091087;28;20048;-58
2023/10/11 02:17:54;;;;;;;30.92;18.85;;;15.90;99.90;;;;;;5099070;28;20441;-60
2023/10/11 02:20:22;;;;;;;30.98;19.65;;;15.90;99.90;;;;;;5111432;27;20106;-58
2023/10/11 02:22:56;;;;;;;32.63;19.38;;;15.80;99.90;;;;;;5110414;28;20535;-61
2023/10/11 02:25:27;;;;;;;28.15;19.05;;;16.00;99.90;;;;;;5111489;28;20027;-59
2023/10/11 02:27:54;;;;;;;33.80;18.60;;;15.90;99.90;;;;;;5111257;28;20043;-61
2023/10/11 02:30:24;;;;;;;26.10;18.55;;;15.90;99.90;;;;;;5111271;28;20832;-60
2023/10/11 02:32:58;;;;;;;28.65;18.40;;;15.70;99.90;;;;;;5111415;28;20082;-60
2023/10/11 02:35:29;;;;;;;31.20;17.95;;;15.80;99.90;;;;;;5093831;28;20090;-60
2023/10/11 02:37:59;;;;;;;35.53;17.77;;;15.90;99.90;;;;;;5090938;28;20032;-60
2023/10/11 02:40:25;;;;;;;27.90;17.02;;;15.70;99.90;;;;;;5091054;28;20046;-60
2023/10/11 02:42:55;;;;;;;28.42;17.73;;;15.70;99.90;;;;;;5091289;28;20036;-59
2023/10/11 02:45:24;;;;;;;29.85;18.80;;;15.70;99.90;;;;;;5090854;28;20039;-61
2023/10/11 02:47:59;;;;;;;31.30;18.05;;;15.80;99.90;;;;;;5109811;28;20042;-60
2023/10/11 02:50:28;;;;;;;;;;;15.70;99.90;;;;;;5111572;28;20042;-59
2023/10/11 02:53:04;;;;;;;27.95;17.40;;;15.70;99.90;;;;;;5111547;28;20352;-61
2023/10/11 02:55:30;;;;;;;30.33;16.50;;;15.80;99.90;;;;;;5109755;28;20467;-60
2023/10/11 02:58:06;;;;;;;29.17;17.42;;;15.80;99.90;;;;;;5088939;28;20047;-58
2023/10/11 03:00:33;;;;;;;27.30;16.67;;;15.60;99.90;;;;;;5089306;28;20039;-60
2023/10/11 03:03:00;;;;;;;28.67;15.98;;;15.60;99.90;;;;;;5089182;28;20048;-60
2023/10/11 03:05:29;;;;;;;26.27;17.23;;;15.70;99.90;;;;;;5090322;28;20040;-59
2023/10/11 03:08:14;;;;;;;29.85;16.80;;;15.70;99.90;;;;;;5089912;28;20101;-59
2023/10/11 03:10:53;;;;;;;26.77;16.48;;;15.50;99.90;;;;;;5090233;28;20491;-60
2023/10/11 03:13:24;;;;;;;25.38;16.42;;;15.70;99.90;;;;;;5090024;28;20044;-60
2023/10/11 03:15:56;;;;;;;29.38;17.13;;;15.60;99.90;;;;;;5089018;28;20124;-59
2023/10/11 03:18:32;;;;;;;31.85;18.15;;;15.50;99.90;;;;;;5090402;28;20088;-59
2023/10/11 03:21:19;;;;;;;27.60;17.27;;;15.70;99.90;;;;;;5090341;28;20084;-60
2023/10/11 03:23:47;;;;;;;28.55;16.40;;;15.60;99.90;;;;;;5087701;28;20123;-60
2023/10/11 03:26:18;;;;;;;35.15;17.38;;;15.50;99.90;;;;;;5094225;28;20040;-58
2023/10/11 03:28:57;;;;;;;27.02;17.13;;;15.50;99.90;;;;;;5111886;28;20047;-60
2023/10/11 03:31:29;;;;;;;27.17;16.80;;;15.70;99.90;;;;;;5094962;27;20047;-60
2023/10/11 03:34:19;;;;;;;27.10;16.85;;;15.60;99.90;;;;;;5094235;28;20191;-62
2023/10/11 03:36:52;;;;;;;28.88;17.35;;;15.70;99.90;;;;;;5094215;28;20105;-61
2023/10/11 03:42:07;;;;;;;31.83;17.85;;;15.70;99.90;;;;;;5094522;28;20368;-60
2023/10/11 03:44:37;;;;;;;29.10;17.38;;;15.60;99.90;;;;;;5094415;28;20035;-60
2023/10/11 03:47:08;;;;;;;23.70;16.40;;;15.60;99.90;;;;;;5093394;28;20394;-61
2023/10/11 03:52:16;;;;;;;30.50;16.30;;;15.70;99.90;;;;;;5093794;28;20104;-61
2023/10/11 03:54:42;;;;;;;26.85;17.00;;;15.80;99.90;;;;;;5112139;28;20043;-61
2023/10/11 03:57:08;;;;;;;27.67;16.73;;;15.80;99.90;;;;;;5114375;28;20039;-61
2023/10/11 03:59:38;;;;;;;28.38;16.35;;;15.80;99.90;;;;;;5114076;28;20059;-59
2023/10/11 04:02:10;;;;;;;24.52;16.13;;;15.80;99.90;;;;;;5108903;28;20044;-61
2023/10/11 04:04:40;;;;;;;28.73;16.73;;;15.70;99.90;;;;;;5094144;28;20553;-60
2023/10/11 04:07:06;;;;;;;31.95;17.52;;;15.90;99.90;;;;;;5093649;28;20044;-60
2023/10/11 04:09:32;;;;;;;25.30;15.45;;;15.80;99.90;;;;;;5112548;28;20075;-60
2023/10/11 04:12:03;;;;;;;28.13;16.77;;;15.80;99.90;;;;;;5114257;28;20043;-59
2023/10/11 04:17:06;;;;;;;27.42;16.33;;;15.80;99.90;;;;;;5114254;28;20478;-60
2023/10/11 04:19:32;;;;;;;30.48;16.35;;;15.80;99.90;;;;;;5114173;28;20474;-60
2023/10/11 04:21:59;;;;;;;28.45;17.70;;;15.70;99.90;;;;;;5114072;28;20055;-61
2023/10/11 04:24:26;;;;;;;31.75;16.48;;;15.80;99.90;;;;;;5098635;28;20051;-61
2023/10/11 04:27:45;;;;;;;28.30;16.80;;;15.80;99.90;;;;;;5092546;28;20032;-61
2023/10/11 04:29:40;;;;;;;27.80;16.55;;;15.80;99.90;;;;;;5112306;28;20100;-59
2023/10/11 04:32:09;;;;;;;26.95;17.25;;;15.80;99.90;;;;;;5113867;28;20047;-61
2023/10/11 04:34:38;;;;;;;27.90;16.98;;;15.90;99.90;;;;;;5105309;28;20044;-59
2023/10/11 04:37:16;;;;;;;34.40;17.80;;;15.90;99.90;;;;;;5093220;28;20056;-60
2023/10/11 04:39:51;;;;;;;34.85;18.00;;;15.90;99.90;;;;;;5092274;28;20085;-61
2023/10/11 04:42:20;;;;;;;35.50;18.48;;;15.90;99.90;;;;;;5092304;28;20039;-61
2023/10/11 04:44:54;;;;;;;28.02;17.75;;;15.90;99.90;;;;;;5093184;28;20044;-61
2023/10/11 04:47:23;;;;;;;28.80;18.42;;;16.00;99.90;;;;;;5093029;28;20048;-58
2023/10/11 04:49:48;;;;;;;29.58;17.70;;;15.90;99.90;;;;;;5092759;28;20040;-60
2023/10/11 04:52:22;;;;;;;31.60;18.05;;;16.10;99.90;;;;;;5092790;28;20032;-61
2023/10/11 04:54:54;;;;;;;31.20;18.08;;;15.90;99.90;;;;;;5092561;28;20044;-60
2023/10/11 04:57:36;;;;;;;29.38;18.17;;;16.00;99.90;;;;;;5092978;28;20024;-61
2023/10/11 05:00:08;;;;;;;31.17;18.55;;;16.00;99.90;;;;;;5093114;28;20190;-61
2023/10/11 05:02:36;;;;;;;37.20;15.00;;;16.00;99.90;;;;;;5092797;28;20039;-61
2023/10/11 05:05:05;;;;;;;37.35;19.55;;;16.20;99.90;;;;;;5092913;28;20044;-61
2023/10/11 05:07:32;;;;;;;34.92;18.08;;;16.00;99.90;;;;;;5104272;28;20526;-64
2023/10/11 05:10:29;;;;;;;32.58;19.17;;;16.00;99.90;;;;;;5112100;28;20055;-60
2023/10/11 05:12:57;;;;;;;30.90;19.30;;;16.10;99.90;;;;;;5092029;28;20463;-60
2023/10/11 05:15:29;;;;;;;34.00;19.83;;;16.20;99.90;;;;;;5092234;28;20094;-59
2023/10/11 05:18:06;;;;;;;35.35;19.45;;;16.20;99.90;;;;;;5090666;28;20036;-58
2023/10/11 05:23:11;;;;;;;35.80;19.50;;;16.10;99.90;;;;;;5092618;28;20048;-60
2023/10/11 05:25:39;;;;;;;32.97;20.38;;;16.00;99.90;;;;;;5110880;28;20061;-60
2023/10/11 05:31:01;;;;;;;32.60;19.67;;;16.10;99.90;;;;;;5092702;28;20082;-61
2023/10/11 05:33:41;;;;;;;33.10;20.70;;;16.00;99.90;;;;;;5091953;28;20130;-60
2023/10/11 05:36:16;;;;;;;36.03;21.63;;;15.90;99.90;;;;;;5111234;28;20379;-59
2023/10/11 05:52:25;;;;;;;;;;;15.60;99.90;;;;;;5092537;28;20101;-59
2023/10/11 05:54:53;;;;;;;37.00;22.33;;;15.80;99.90;;;;;;5091169;28;19920;-60
2023/10/11 05:57:23;;;;;;;38.58;22.25;;;15.80;99.90;;;;;;5091678;28;20379;-60
2023/10/11 05:59:49;;;;;;;38.10;22.77;;;15.80;99.90;;;;;;5109225;28;20035;-60
2023/10/11 06:02:18;;;;;;;41.28;23.13;;;15.90;99.90;;;;;;5109892;28;20196;-60
2023/10/11 06:04:45;;;;;;;41.40;22.88;;;15.70;99.90;;;;;;5111909;28;20044;-61
2023/10/11 06:07:16;;;;;;;38.30;24.15;;;15.90;99.90;;;;;;5111629;28;20035;-60
2023/10/11 06:09:43;;;;;;;39.78;22.85;;;15.70;99.90;;;;;;5110367;28;20046;-60
2023/10/11 06:12:22;;;;;;;39.65;23.75;;;15.70;99.90;;;;;;5090782;28;20122;-60
2023/10/11 06:14:52;;;;;;;39.47;23.67;;;15.80;99.90;;;;;;5087166;28;20062;-60
2023/10/11 06:17:21;;;;;;;36.85;23.13;;;15.70;99.90;;;;;;5090901;28;20062;-59
2023/10/11 06:19:53;;;;;;;43.92;23.70;;;15.90;99.90;;;;;;5087666;28;20403;-61
2023/10/11 06:22:21;;;;;;;37.30;22.48;;;15.80;99.90;;;;;;5090977;28;20071;-62
2023/10/11 06:24:47;;;;;;;42.45;23.58;;;15.70;99.90;;;;;;5091033;28;20487;-58
2023/10/11 06:29:46;;;;;;;37.03;22.35;;;15.70;99.90;;;;;;5110554;28;20050;-59
2023/10/11 06:32:18;;;;;;;36.17;22.25;;;15.90;99.90;;;;;;5094656;28;20399;-61
2023/10/11 06:34:45;;;;;;;39.38;23.42;;;15.90;99.90;;;;;;5090279;28;20080;-60
2023/10/11 06:37:11;;;;;;;36.80;22.60;;;15.80;99.90;;;;;;5091126;28;20036;-62
2023/10/11 06:42:21;;;;;;;40.22;23.35;;;16.00;99.90;;;;;;5091373;28;20040;-62
2023/10/11 06:45:05;;;;;;;39.55;23.40;;;15.80;99.90;;;;;;5091276;28;20122;-59
2023/10/11 06:47:35;;;;;;;40.63;18.10;;;15.80;99.90;;;;;;5091633;28;20113;-60
2023/10/11 06:50:10;;;;;;;35.97;23.05;;;16.00;99.90;;;;;;5087302;28;20036;-62
2023/10/11 06:52:37;;;;;;;39.88;23.90;;;16.00;99.90;;;;;;5087488;28;20487;-59
2023/10/11 06:57:39;;;;;;;39.75;23.65;;;16.10;99.90;;;;;;5090730;28;20090;-61
2023/10/11 07:00:23;;;;;;;38.30;23.90;;;15.90;99.90;;;;;;5082148;28;20174;-61
2023/10/11 07:03:06;;;;;;;37.00;23.33;;;16.10;99.90;;;;;;5083924;28;20047;-61
2023/10/11 07:05:46;;;;;;;39.22;23.02;;;16.20;99.90;;;;;;5079052;28;20039;-60
2023/10/11 07:08:17;;;;;;;40.85;24.35;;;16.10;99.90;;;;;;5082906;28;20043;-61
2023/10/11 07:11:00;;;;;;;38.20;24.05;;;16.00;99.90;;;;;;5090156;28;20036;-60
2023/10/11 07:13:30;;;;;;;37.63;23.23;;;16.10;99.90;;;;;;5093883;28;20640;-59
2023/10/11 07:16:07;;;;;;;37.58;24.05;;;16.20;99.90;;;;;;5093663;28;20048;-59
2023/10/11 07:18:39;;;;;;;42.75;23.90;;;16.30;99.90;;;;;;5093132;28;20038;-58
2023/10/11 07:21:09;;;;;;;47.05;25.27;;;16.30;99.90;;;;;;5093263;28;20114;-61
2023/10/11 07:26:23;;;;;;;48.75;26.80;;;16.30;99.90;;;;;;5093587;28;20451;-59
2023/10/11 07:28:52;;;;;;;45.33;26.42;;;16.50;99.90;;;;;;5091188;28;20067;-59
2023/10/11 07:31:35;;;;;;;49.55;26.08;;;16.30;99.90;;;;;;5089655;28;20035;-60
2023/10/11 07:34:10;;;;;;;49.45;27.58;;;16.30;99.90;;;;;;5094524;28;20032;-58
2023/10/11 07:36:38;;;;;;;50.58;27.83;;;16.60;99.90;;;;;;5089917;28;20326;-61
2023/10/11 07:39:15;;;;;;;49.13;28.02;;;16.60;99.90;;;;;;5090560;28;20032;-59
2023/10/11 07:41:42;;;;;;;47.00;27.10;;;16.70;99.90;;;;;;5095811;28;20059;-60
2023/10/11 07:44:09;;;;;;;48.17;26.98;;;16.50;99.90;;;;;;5085759;28;20407;-61
2023/10/11 07:46:37;;;;;;;47.63;28.45;;;16.60;99.90;;;;;;5083099;28;21604;-58
2023/10/11 07:49:07;;;;;;;53.63;28.35;;;16.60;99.90;;;;;;5087839;28;20055;-57
2023/10/11 07:51:39;;;;;;;50.22;27.67;;;16.80;99.90;;;;;;5093538;28;20040;-60
2023/10/11 07:54:19;;;;;;;50.25;27.73;;;16.90;99.90;;;;;;5093574;28;20495;-60
2023/10/11 07:56:46;;;;;;;47.83;27.48;;;16.90;99.90;;;;;;5084946;28;20423;-59
2023/10/11 07:59:12;;;;;;;50.45;22.02;;;16.90;99.90;;;;;;5090904;28;20040;-58
2023/10/11 08:01:44;;;;;;;50.75;28.90;;;16.90;99.90;;;;;;5095056;28;20039;-59
2023/10/11 08:04:17;;;;;;;48.20;27.58;;;16.90;99.90;;;;;;5094677;28;20072;-61
2023/10/11 08:06:46;;;;;;;41.55;26.60;;;16.80;99.90;;;;;;5088997;28;20132;-60
2023/10/11 08:09:25;;;;;;;45.47;26.33;;;16.70;99.90;;;;;;5106053;28;20050;-59
2023/10/11 08:11:57;;;;;;;45.25;26.75;;;16.90;99.90;;;;;;5107990;28;20078;-58
2023/10/11 08:14:28;;;;;;;45.95;27.17;;;16.80;99.90;;;;;;5098310;28;20055;-60
2023/10/11 08:16:59;;;;;;;43.33;26.35;;;16.80;99.90;;;;;;5085789;28;20062;-59
2023/10/11 08:19:25;;;;;;;41.60;26.83;;;17.00;99.90;;;;;;5085750;28;20036;-59
2023/10/11 08:21:57;;;;;;;47.75;27.33;;;16.80;99.90;;;;;;5084425;28;20040;-59
2023/10/11 08:24:28;;;;;;;49.38;26.13;;;16.70;99.90;;;;;;5085836;28;20539;-59
2023/10/11 08:27:07;;;;;;;46.50;26.08;;;16.80;99.90;;;;;;5089286;28;20072;-59
2023/10/11 08:29:33;;;;;;;45.42;25.73;;;16.80;99.90;;;;;;5091900;28;20041;-60
2023/10/11 08:32:00;;;;;;;43.65;25.33;;;17.00;99.90;;;;;;5093454;28;20028;-61
2023/10/11 08:34:27;;;;;;;47.65;25.70;;;16.80;99.90;;;;;;5091367;28;20533;-62
2023/10/11 08:36:56;;;;;;;43.25;26.30;;;16.90;99.90;;;;;;5093498;28;20468;-59
2023/10/11 08:42:16;;;;;;;50.05;29.00;;;16.80;99.90;;;;;;5093431;28;20032;-60
2023/10/11 08:44:46;;;;;;;47.53;26.33;;;16.80;99.90;;;;;;5093584;28;20534;-60
2023/10/11 08:47:16;;;;;;;49.13;25.83;;;17.00;99.90;;;;;;5092999;28;20040;-61
2023/10/11 08:49:48;;;;;;;48.13;27.85;;;16.80;99.90;;;;;;5092375;28;20388;-59
2023/10/11 08:52:24;;;;;;;46.45;27.00;;;17.10;99.90;;;;;;5092669;28;20485;-61
2023/10/11 08:54:51;;;;;;;50.97;25.90;;;17.10;99.90;;;;;;5092448;28;20375;-62
2023/10/11 08:57:25;;;;;;;43.38;25.80;;;17.00;99.90;;;;;;5091713;28;20036;-60
2023/10/11 08:59:56;;;;;;;42.50;24.35;;;17.00;99.90;;;;;;5097583;28;20072;-59
2023/10/11 09:02:27;;;;;;;42.53;25.48;;;17.10;99.90;;;;;;5099971;28;20079;-60
2023/10/11 09:07:51;;;;;;;46.83;25.27;;;17.00;99.90;;;;;;5096508;28;20040;-62
2023/10/11 09:10:26;;;;;;;45.08;25.42;;;17.20;99.90;;;;;;5098379;28;20044;-60
2023/10/11 09:12:56;;;;;;;45.30;24.83;;;17.20;99.90;;;;;;5093851;28;20071;-59
2023/10/11 09:15:45;;;;;;;41.92;23.95;;;17.00;99.90;;;;;;5096670;28;20048;-61
2023/10/11 09:18:14;;;;;;;41.67;23.45;;;17.00;99.90;;;;;;5094915;28;20107;-60
2023/10/11 09:21:29;;;;;;;46.55;23.80;;;17.10;99.90;;;;;;5097339;28;20059;-59
2023/10/11 09:23:47;;;;;;;43.75;22.23;;;17.10;99.90;;;;;;5096175;28;20039;-60
2023/10/11 09:26:21;;;;;;;41.50;22.80;;;17.10;99.90;;;;;;5074758;28;20134;-60
2023/10/11 09:28:58;;;;;;;42.97;21.77;;;17.30;99.90;;;;;;5093046;28;20085;-61
2023/10/11 09:31:27;;;;;;;36.85;21.30;;;17.20;99.90;;;;;;5094887;28;20036;-60
2023/10/11 09:33:55;;;;;;;30.77;19.20;;;17.40;99.90;;;;;;5096480;28;20035;-60
2023/10/11 09:36:24;;;;;;;35.35;18.00;;;17.50;99.90;;;;;;5096526;28;20043;-59
2023/10/11 09:38:57;;;;;;;35.42;16.65;;;17.50;99.90;;;;;;5095681;28;20063;-63
2023/10/11 09:41:28;;;;;;;34.33;16.38;;;17.50;99.90;;;;;;5095023;28;20057;-59
2023/10/11 09:43:59;;;;;;;30.73;15.20;;;17.40;99.90;;;;;;5098058;28;20032;-61
2023/10/11 09:46:31;;;;;;;25.55;14.32;;;17.60;99.90;;;;;;5098429;28;20115;-59
2023/10/11 09:49:02;;;;;;;23.92;10.80;;;17.40;99.90;;;;;;5092689;28;20052;-60
2023/10/11 09:51:28;;;;;;;21.27;12.20;;;17.60;99.90;;;;;;5098319;28;20036;-60
2023/10/11 09:53:56;;;;;;;21.52;10.80;;;17.60;99.90;;;;;;5092353;28;20032;-59
2023/10/11 09:56:37;;;;;;;21.70;11.23;;;17.60;99.90;;;;;;5095012;28;20084;-60
2023/10/11 09:59:11;;;;;;;21.10;10.80;;;17.50;99.90;;;;;;5096495;28;20070;-60
2023/10/11 10:01:51;;;;;;;19.58;10.48;;;17.70;99.90;;;;;;5099390;28;20032;-60
2023/10/11 10:04:20;;;;;;;22.35;9.88;;;17.70;99.90;;;;;;5092015;28;20047;-61
2023/10/11 10:07:10;;;;;;;19.73;10.50;;;17.60;99.90;;;;;;5099238;28;20039;-61
2023/10/11 10:09:52;;;;;;;17.45;8.95;;;18.00;99.90;;;;;;5092870;28;20036;-62
2023/10/11 10:12:22;;;;;;;19.08;9.20;;;18.00;99.90;;;;;;5096158;28;20036;-61
2023/10/11 10:15:07;;;;;;;19.92;7.88;;;18.20;99.90;;;;;;5098168;28;20055;-60
2023/10/11 10:17:34;;;;;;;12.85;6.38;;;18.20;99.90;;;;;;5093162;28;20051;-61
2023/10/11 10:20:34;;;;;;;16.08;7.32;;;18.30;99.90;;;;;;5092469;28;20045;-59
2023/10/11 10:23:15;;;;;;;13.23;5.93;;;18.50;99.90;;;;;;5085970;28;20052;-60
2023/10/11 10:26:04;;;;;;;13.07;6.78;;;18.70;99.90;;;;;;5080113;28;20046;-61
2023/10/11 10:28:35;;;;;;;16.25;6.00;;;18.80;99.90;;;;;;5047435;28;20056;-58
2023/10/11 10:31:16;;;;;;;10.68;5.85;;;18.80;99.90;;;;;;5090145;28;20391;-63
2023/10/11 10:33:52;;;;;;;13.93;5.75;;;18.90;99.90;;;;;;5084898;28;20039;-60
2023/10/11 10:36:17;;;;;;;10.38;5.13;;;18.80;99.90;;;;;;5088349;28;20118;-62
2023/10/11 10:38:58;;;;;;;12.60;5.30;;;18.90;99.90;;;;;;5090861;28;20048;-62
2023/10/11 10:41:25;;;;;;;14.10;6.03;;;18.80;99.90;;;;;;5091481;28;20067;-61
2023/10/11 10:44:04;;;;;;;12.50;5.35;;;19.00;99.90;;;;;;5077674;28;20100;-58
2023/10/11 10:46:34;;;;;;;11.93;5.50;;;18.90;99.90;;;;;;5082388;28;20032;-59
2023/10/11 10:49:01;;;;;;;14.13;5.20;;;19.10;99.90;;;;;;5082877;28;20039;-58
2023/10/11 10:51:35;;;;;;;10.00;4.63;;;19.20;99.90;;;;;;5080690;28;20035;-61
2023/10/11 10:54:06;;;;;;;11.30;4.45;;;19.30;99.90;;;;;;5081403;28;20044;-59
2023/10/11 10:56:32;;;;;;;12.90;5.28;;;19.50;99.90;;;;;;5078899;28;20446;-60
2023/10/11 10:59:07;;;;;;;9.98;4.90;;;19.60;99.90;;;;;;5081822;28;20033;-59
2023/10/11 11:01:34;;;;;;;9.50;4.55;;;19.70;99.90;;;;;;5080850;28;20036;-60
2023/10/11 11:04:07;;;;;;;15.40;5.28;;;19.80;99.90;;;;;;5081614;28;20406;-62
2023/10/11 11:06:46;;;;;;;12.27;5.60;;;19.90;99.90;;;;;;5082266;28;20035;-61
2023/10/11 11:09:14;;;;;;;14.82;5.47;;;20.00;99.90;;;;;;5082858;28;20157;-59
2023/10/11 11:11:43;;;;;;;12.30;5.80;;;19.90;99.90;;;;;;5080076;28;20044;-60
2023/10/11 11:14:10;;;;;;;15.68;4.78;;;19.80;99.90;;;;;;5080160;28;20051;-62
2023/10/11 11:16:41;;;;;;;13.63;5.18;;;19.80;99.90;;;;;;5082292;28;20043;-60
2023/10/11 11:19:16;;;;;;;9.32;5.15;;;19.60;99.90;;;;;;5081140;28;20112;-60
2023/10/11 11:21:46;;;;;;;13.70;5.38;;;19.60;99.90;;;;;;5080262;28;20039;-62
2023/10/11 11:24:27;;;;;;;8.45;4.75;;;19.70;99.90;;;;;;5109685;28;20492;-60
2023/10/11 11:26:54;;;;;;;12.02;4.78;;;19.70;99.90;;;;;;5081565;28;20040;-60
2023/10/11 11:29:32;;;;;;;10.30;4.75;;;19.50;99.90;;;;;;5080196;28;20042;-61
2023/10/11 11:31:59;;;;;;;11.80;4.88;;;19.50;99.90;;;;;;5081530;28;20051;-60
2023/10/11 11:34:34;;;;;;;11.13;4.40;;;19.40;99.90;;;;;;5081806;28;20036;-60
2023/10/11 11:37:20;;;;;;;10.40;4.60;;;19.50;99.90;;;;;;5082311;28;20036;-59
2023/10/11 11:39:52;;;;;;;13.05;4.68;;;19.40;99.90;;;;;;5081988;28;20564;-61
2023/10/11 11:42:20;;;;;;;11.45;4.78;;;19.40;99.90;;;;;;5080210;28;20096;-59
2023/10/11 11:44:47;;;;;;;9.65;4.80;;;19.40;99.90;;;;;;5109281;28;20388;-60
2023/10/11 11:47:20;;;;;;;12.38;4.93;;;19.60;99.90;;;;;;5086001;28;20064;-59
2023/10/11 11:49:47;;;;;;;13.15;4.60;;;19.70;99.90;;;;;;5084279;28;20021;-60
2023/10/11 11:52:16;;;;;;;11.00;4.60;;;19.80;99.90;;;;;;5084989;28;20032;-59
2023/10/11 11:54:43;;;;;;;12.98;4.78;;;19.90;99.90;;;;;;5085500;28;20115;-59
2023/10/11 11:57:09;;;;;;;11.30;5.07;;;20.00;99.90;;;;;;5084947;28;20040;-60
2023/10/11 11:59:37;;;;;;;10.38;4.82;;;20.10;99.90;;;;;;5090940;28;20044;-61
2023/10/11 12:02:08;;;;;;;13.85;4.93;;;20.10;99.90;;;;;;5091874;28;20032;-59
2023/10/11 12:04:36;;;;;;;11.35;5.00;;;20.20;99.90;;;;;;5092888;28;20055;-61
2023/10/11 12:07:09;;;;;;;10.43;4.45;;;20.10;99.90;;;;;;5111828;28;20051;-61
2023/10/11 12:09:37;;;;;;;14.52;4.53;;;20.10;99.90;;;;;;5096146;28;20112;-61
2023/10/11 12:12:05;;;;;;;9.82;4.60;;;20.10;99.90;;;;;;5114321;28;20383;-60
2023/10/11 12:14:37;;;;;;;13.57;4.95;;;20.00;99.90;;;;;;5114007;28;20308;-61
2023/10/11 12:17:09;;;;;;;11.18;4.45;;;20.10;99.90;;;;;;5095179;28;20043;-60
2023/10/11 12:19:36;;;;;;;9.38;3.75;;;20.10;99.90;;;;;;5095530;28;20062;-62
2023/10/11 12:22:02;;;;;;;9.00;3.88;;;20.20;99.90;;;;;;5114369;28;20051;-60
2023/10/11 12:24:27;;;;;;;10.45;4.10;;;20.20;99.90;;;;;;5096272;28;20387;-62
2023/10/11 12:26:57;;;;;;;11.57;4.00;;;20.30;99.90;;;;;;5093666;28;20138;-62
2023/10/11 12:29:26;;;;;;;11.65;4.50;;;20.30;99.90;;;;;;5092858;28;20036;-59
2023/10/11 12:31:55;;;;;;;9.52;3.88;;;20.40;99.90;;;;;;5093465;28;20494;-59
2023/10/11 12:34:27;;;;;;;11.98;3.97;;;20.20;99.90;;;;;;5108407;28;20051;-60
2023/10/11 12:36:53;;;;;;;7.93;3.63;;;20.20;99.90;;;;;;5112475;28;20035;-59
2023/10/11 12:39:24;;;;;;;11.52;4.00;;;20.30;99.90;;;;;;5106131;28;20032;-60
2023/10/11 12:41:51;;;;;;;11.95;3.45;;;20.30;99.90;;;;;;5094075;28;20078;-58
2023/10/11 12:44:21;;;;;;;8.40;3.53;;;20.50;99.90;;;;;;5093073;28;20040;-59
2023/10/11 12:46:51;;;;;;;8.43;3.20;;;20.50;99.90;;;;;;5092019;28;20123;-59
2023/10/11 12:49:18;;;;;;;9.82;3.35;;;20.70;99.90;;;;;;5095038;28;20043;-58
2023/10/11 12:51:45;;;;;;;12.25;3.50;;;20.90;99.90;;;;;;5113514;28;20122;-59
2023/10/11 12:54:12;;;;;;;9.10;2.80;;;21.00;99.90;;;;;;5096220;28;20458;-58
2023/10/11 12:56:38;;;;;;;8.30;3.30;;;21.00;99.90;;;;;;5091010;28;20044;-58
2023/10/11 12:59:10;;;;;;;8.43;3.47;;;21.00;99.90;;;;;;5104188;28;20050;-60
2023/10/11 13:01:38;;;;;;;8.50;3.30;;;21.00;99.90;;;;;;5097401;28;20036;-57
2023/10/11 13:04:09;;;;;;;8.15;2.85;;;20.90;99.90;;;;;;5093465;28;20505;-60
2023/10/11 13:06:39;;;;;;;9.82;3.47;;;20.90;99.90;;;;;;5092851;28;20068;-60
2023/10/11 13:09:14;;;;;;;9.90;3.83;;;20.90;99.90;;;;;;5109260;28;20573;-60
2023/10/11 13:11:44;;;;;;;9.75;3.60;;;21.00;99.90;;;;;;5092539;28;20496;-58
2023/10/11 13:14:16;;;;;;;9.68;4.05;;;21.00;99.90;;;;;;5111404;28;20055;-58
2023/10/11 13:16:42;;;;;;;10.10;3.72;;;20.90;99.90;;;;;;5099298;28;20043;-58
2023/10/11 13:19:08;;;;;;;9.98;4.18;;;20.90;99.90;;;;;;5093088;28;20032;-59
2023/10/11 13:21:35;;;;;;;8.45;3.60;;;20.70;99.90;;;;;;5097365;28;20048;-60
2023/10/11 13:24:08;;;;;;;11.30;4.32;;;20.70;99.90;;;;;;5092407;28;20051;-59
2023/10/11 13:26:34;;;;;;;11.18;5.60;;;20.60;99.90;;;;;;5092489;28;20051;-58
2023/10/11 13:29:01;;;;;;;11.93;6.13;;;20.60;99.90;;;;;;5091541;28;20044;-61
2023/10/11 13:31:29;;;;;;;13.70;6.20;;;20.50;99.90;;;;;;5091881;28;20036;-58
2023/10/11 13:33:55;;;;;;;13.50;6.60;;;20.50;99.90;;;;;;5092613;28;20189;-60
2023/10/11 13:36:21;;;;;;;16.13;6.80;;;20.50;99.90;;;;;;5092387;28;20031;-59